Time;durP1;ratioP1;P1;durP2;ratioP2;P2;SDS_P1;SDS_P2;PMS_P1;PMS_P2;Temp;Humidity;BMP_temperature;BMP_pressure;BME280_temperature;BME280_humidity;BME280_pressure;Samples;Min_cycle;Max_cycle;Signal;HPM_P1;HPM_P2
2022/03/01 00:02:12;;;;;;;28.23;20.17;;;;;;;2.08;79.13;101657.78;4989844;28;20062;-70
2022/03/01 00:04:38;;;;;;;22.15;18.00;;;;;;;1.93;79.23;101680.25;4990615;28;20278;-71
2022/03/01 00:07:04;;;;;;;22.23;17.77;;;;;;;1.71;80.21;101665.22;4987505;28;20470;-71
2022/03/01 00:09:29;;;;;;;24.23;18.52;;;;;;;1.56;80.80;101667.84;4988145;28;20045;-70
2022/03/01 00:11:55;;;;;;;21.08;17.33;;;;;;;1.39;81.89;101672.94;4990796;28;20526;-71
2022/03/01 00:14:20;;;;;;;24.63;17.33;;;;;;;1.53;81.50;101673.72;4988638;28;20065;-71
2022/03/01 00:16:46;;;;;;;21.95;17.08;;;;;;;1.63;80.95;101668.25;4981178;28;20042;-70
2022/03/01 00:19:11;;;;;;;20.85;13.80;;;;;;;1.89;80.24;101659.38;4988912;28;20051;-70
2022/03/01 00:21:37;;;;;;;18.77;15.48;;;;;;;1.81;80.27;101649.41;4990002;28;20101;-70
2022/03/01 00:24:03;;;;;;;20.80;14.95;;;;;;;1.33;81.11;101654.47;4986037;28;20033;-70
2022/03/01 00:26:28;;;;;;;16.95;12.98;;;;;;;1.79;81.26;101662.25;4989331;28;20053;-70
2022/03/01 00:28:53;;;;;;;17.67;10.93;;;;;;;1.85;80.85;101654.84;4982511;28;20487;-70
2022/03/01 00:31:19;;;;;;;18.90;15.70;;;;;;;1.69;80.44;101659.97;4981033;28;20050;-70
2022/03/01 00:33:45;;;;;;;21.73;15.77;;;;;;;1.58;81.81;101659.34;4985444;28;20046;-70
2022/03/01 00:36:10;;;;;;;18.88;15.07;;;;;;;1.62;81.88;101661.31;4991024;28;20458;-70
2022/03/01 00:38:36;;;;;;;14.25;11.18;;;;;;;1.71;81.41;101648.03;4988086;28;20050;-70
2022/03/01 00:41:01;;;;;;;17.13;12.68;;;;;;;1.92;80.34;101656.09;4988267;28;20406;-70
2022/03/01 00:43:27;;;;;;;17.10;14.43;;;;;;;1.92;80.47;101650.00;4987866;28;20030;-70
2022/03/01 00:45:54;;;;;;;17.70;14.00;;;;;;;2.12;80.31;101649.38;4992213;28;20037;-70
2022/03/01 00:48:20;;;;;;;19.42;14.27;;;;;;;1.24;81.82;101660.03;4991008;28;20034;-70
2022/03/01 00:50:46;;;;;;;17.02;13.57;;;;;;;1.31;82.91;101678.47;4989831;28;20050;-70
2022/03/01 00:53:12;;;;;;;16.50;13.70;;;;;;;1.34;83.64;101668.31;4983521;28;20387;-71
2022/03/01 00:55:38;;;;;;;23.25;14.63;;;;;;;1.43;82.75;101661.09;4981483;28;20096;-70
2022/03/01 00:58:03;;;;;;;19.00;14.52;;;;;;;1.85;82.03;101652.25;4988998;28;20547;-70
2022/03/01 01:00:30;;;;;;;21.30;10.20;;;;;;;1.57;81.62;101667.94;4988919;28;20034;-71
2022/03/01 01:02:56;;;;;;;19.95;14.18;;;;;;;1.71;81.80;101672.97;4988168;28;20223;-71
2022/03/01 01:05:23;;;;;;;13.02;9.48;;;;;;;1.75;81.47;101655.13;4989362;28;20490;-73
2022/03/01 01:07:59;;;;;;;15.07;12.73;;;;;;;1.97;80.86;101667.56;4988465;28;20057;-71
2022/03/01 01:10:25;;;;;;;13.18;11.68;;;;;;;1.81;80.86;101671.00;4989587;28;20057;-70
2022/03/01 01:12:51;;;;;;;19.08;13.20;;;;;;;1.86;80.75;101664.38;4988621;28;20034;-70
2022/03/01 01:15:18;;;;;;;15.02;11.65;;;;;;;1.85;80.98;101652.25;4991895;28;20080;-73
2022/03/01 01:17:44;;;;;;;17.90;13.02;;;;;;;1.83;81.11;101663.34;4993011;28;20053;-70
2022/03/01 01:20:11;;;;;;;16.90;13.50;;;;;;;2.02;81.08;101671.28;4994459;28;20050;-73
2022/03/01 01:22:52;;;;;;;12.45;9.20;;;;;;;1.82;80.96;101677.94;4989392;28;20359;-73
2022/03/01 01:25:23;;;;;;;18.63;13.25;;;;;;;1.90;80.83;101670.63;4991348;28;20311;-72
2022/03/01 01:27:54;;;;;;;15.93;11.05;;;;;;;1.98;80.78;101664.16;4993919;28;20482;-72
2022/03/01 01:30:23;;;;;;;17.13;12.23;;;;;;;1.73;81.22;101661.91;4994445;28;20054;-71
2022/03/01 01:32:49;;;;;;;17.60;14.23;;;;;;;1.98;80.67;101666.75;4993318;28;20042;-72
2022/03/01 01:35:17;;;;;;;15.70;12.05;;;;;;;1.88;81.14;101680.88;4987093;28;20038;-72
2022/03/01 01:37:43;;;;;;;14.73;12.32;;;;;;;1.97;80.90;101674.44;4984518;28;20046;-71
2022/03/01 01:40:12;;;;;;;15.18;12.68;;;;;;;2.22;80.03;101681.84;4991983;28;20065;-70
2022/03/01 01:42:48;;;;;;;18.55;13.23;;;;;;;1.71;81.30;101666.13;4993603;28;20466;-70
2022/03/01 01:45:14;;;;;;;13.18;10.95;;;;;;;1.97;81.29;101682.22;4992921;28;20409;-70
2022/03/01 01:47:40;;;;;;;17.20;11.82;;;;;;;2.04;80.87;101680.03;4991712;28;20057;-71
2022/03/01 01:50:07;;;;;;;16.25;12.50;;;;;;;2.21;80.30;101686.13;4992574;28;20047;-71
2022/03/01 01:52:33;;;;;;;16.80;12.05;;;;;;;1.88;81.31;101680.88;4991210;28;20076;-71
2022/03/01 01:54:58;;;;;;;20.83;13.32;;;;;;;2.00;80.95;101678.09;4991223;28;20074;-70
2022/03/01 01:57:39;;;;;;;18.85;12.88;;;;;;;2.14;80.50;101672.78;4992066;28;20026;-71
2022/03/01 02:00:06;;;;;;;15.73;12.40;;;;;;;2.05;80.62;101681.81;4993222;28;20062;-71
2022/03/01 02:03:25;;;;;;;11.90;10.35;;;;;;;1.91;81.48;101680.16;4983289;28;20487;-70
2022/03/01 02:05:51;;;;;;;17.65;13.52;;;;;;;2.22;80.67;101679.25;5002989;28;20100;-71
2022/03/01 02:08:16;;;;;;;15.10;12.30;;;;;;;2.09;80.23;101677.72;5011308;28;20050;-73
2022/03/01 02:10:42;;;;;;;14.07;11.63;;;;;;;2.29;80.18;101681.34;5003237;28;20097;-72
2022/03/01 02:13:27;;;;;;;16.52;12.77;;;;;;;2.11;79.78;101682.16;5012035;28;20056;-72
2022/03/01 02:15:55;;;;;;;18.88;12.48;;;;;;;2.24;80.09;101670.75;4998776;28;20046;-72
2022/03/01 02:18:21;;;;;;;18.17;11.95;;;;;;;2.22;79.90;101667.19;4992155;28;20092;-72
2022/03/01 02:20:47;;;;;;;20.98;12.07;;;;;;;2.26;80.51;101669.13;4974127;28;20043;-72
2022/03/01 02:23:13;;;;;;;16.02;12.18;;;;;;;2.36;79.38;101675.69;4990131;28;20045;-72
2022/03/01 02:25:38;;;;;;;13.50;10.93;;;;;;;2.45;78.76;101672.72;4994222;28;20050;-72
2022/03/01 02:28:05;;;;;;;15.52;11.85;;;;;;;2.00;80.50;101677.19;5004541;28;20042;-71
2022/03/01 02:30:31;;;;;;;15.25;12.48;;;;;;;2.17;80.44;101675.53;4989780;28;20378;-71
2022/03/01 02:32:57;;;;;;;17.30;11.75;;;;;;;2.35;80.52;101671.34;4992713;28;20026;-71
2022/03/01 02:35:23;;;;;;;15.52;12.00;;;;;;;2.39;80.36;101678.47;4993118;28;20549;-71
2022/03/01 02:37:49;;;;;;;15.75;12.52;;;;;;;2.52;79.76;101659.28;4991507;28;20076;-71
2022/03/01 02:40:16;;;;;;;15.27;12.70;;;;;;;2.56;79.71;101663.81;4991844;28;20394;-71
2022/03/01 02:42:44;;;;;;;16.58;12.55;;;;;;;2.42;80.07;101670.84;5003505;28;20512;-71
2022/03/01 02:45:17;;;;;;;19.95;12.75;;;;;;;2.37;80.99;101659.38;4983382;28;20109;-72
2022/03/01 02:47:43;;;;;;;15.13;12.13;;;;;;;2.42;80.58;101654.44;4990547;28;20042;-72
2022/03/01 02:50:11;;;;;;;16.92;12.90;;;;;;;2.42;80.96;101664.78;4983188;28;20043;-71
2022/03/01 02:52:37;;;;;;;17.35;12.60;;;;;;;2.28;81.01;101659.75;4990068;28;20042;-71
2022/03/01 02:55:03;;;;;;;15.70;11.75;;;;;;;2.31;81.24;101649.56;4983500;28;20054;-71
2022/03/01 02:57:29;;;;;;;21.00;13.13;;;;;;;2.18;81.60;101636.78;4998315;28;20045;-70
2022/03/01 02:59:55;;;;;;;19.58;13.02;;;;;;;2.26;81.79;101637.19;4985068;28;20042;-70
2022/03/01 03:02:20;;;;;;;18.88;14.25;;;;;;;2.11;82.22;101642.44;4990308;28;20034;-71
2022/03/01 03:04:46;;;;;;;15.00;12.50;;;;;;;2.15;82.30;101634.00;4990569;28;20039;-70
2022/03/01 03:07:12;;;;;;;14.70;12.63;;;;;;;2.23;82.17;101643.09;4989701;28;20107;-71
2022/03/01 03:09:38;;;;;;;15.40;12.15;;;;;;;2.46;81.44;101630.47;4991570;28;20026;-70
2022/03/01 03:12:05;;;;;;;17.70;11.73;;;;;;;2.47;80.80;101629.66;4986031;28;20034;-70
2022/03/01 03:14:38;;;;;;;19.35;13.75;;;;;;;2.13;81.88;101621.78;4989407;28;20478;-71
2022/03/01 03:17:04;;;;;;;15.95;13.50;;;;;;;1.74;83.37;101616.25;4989845;28;20053;-71
2022/03/01 03:19:30;;;;;;;17.52;13.45;;;;;;;2.00;83.14;101625.44;4989666;28;20049;-73
2022/03/01 03:21:55;;;;;;;14.68;12.50;;;;;;;2.40;81.75;101628.44;4996818;28;20050;-70
2022/03/01 03:24:21;;;;;;;16.63;12.88;;;;;;;2.00;81.92;101623.72;4990722;28;20030;-70
2022/03/01 03:26:46;;;;;;;15.30;12.43;;;;;;;2.26;81.82;101619.06;4989736;28;20129;-71
2022/03/01 03:29:12;;;;;;;14.30;11.70;;;;;;;2.48;80.49;101609.03;4988271;28;20054;-71
2022/03/01 03:31:40;;;;;;;14.43;12.65;;;;;;;2.72;79.70;101608.50;4989942;28;20418;-70
2022/03/01 03:34:10;;;;;;;16.95;12.60;;;;;;;2.69;79.58;101600.56;4989566;28;20050;-70
2022/03/01 03:36:37;;;;;;;17.52;12.23;;;;;;;2.70;79.87;101602.34;5021458;28;20030;-73
2022/03/01 03:39:04;;;;;;;18.88;11.95;;;;;;;2.80;79.35;101603.69;4988191;28;20112;-70
2022/03/01 03:41:30;;;;;;;17.67;13.20;;;;;;;2.94;78.93;101597.50;4989195;28;20039;-70
2022/03/01 03:43:56;;;;;;;19.08;12.30;;;;;;;3.01;79.12;101611.66;4992029;28;20049;-71
2022/03/01 03:46:22;;;;;;;18.10;12.90;;;;;;;2.83;79.01;101607.31;5001259;28;20042;-74
2022/03/01 03:48:48;;;;;;;15.13;11.05;;;;;;;2.78;78.05;101598.44;5009332;28;20064;-72
2022/03/01 03:51:14;;;;;;;13.52;10.40;;;;;;;2.86;76.77;101607.50;5010936;28;20100;-72
2022/03/01 03:53:40;;;;;;;13.20;10.40;;;;;;;2.71;77.75;101601.53;5041997;28;20068;-71
2022/03/01 03:56:06;;;;;;;12.35;9.85;;;;;;;2.83;76.62;101606.44;5007048;28;20500;-71
2022/03/01 03:58:31;;;;;;;11.40;10.07;;;;;;;2.63;76.30;101593.38;5024867;28;20058;-72
2022/03/01 04:00:57;;;;;;;13.80;10.82;;;;;;;2.32;75.75;101586.59;5009047;28;20050;-71
2022/03/01 04:03:23;;;;;;;11.52;9.88;;;;;;;2.46;75.69;101600.28;5003131;28;20040;-71
2022/03/01 04:05:50;;;;;;;12.45;8.90;;;;;;;2.55;76.07;101599.84;5009693;28;20053;-70
2022/03/01 04:08:16;;;;;;;12.32;8.75;;;;;;;2.53;75.74;101606.69;5011400;28;20068;-71
2022/03/01 04:10:42;;;;;;;10.30;9.15;;;;;;;2.33;76.46;101577.13;5009565;28;20374;-71
2022/03/01 04:13:08;;;;;;;9.93;7.95;;;;;;;2.61;75.27;101589.81;5010290;28;20038;-71
2022/03/01 04:15:33;;;;;;;12.48;9.20;;;;;;;2.43;76.17;101584.56;5008576;28;20041;-71
2022/03/01 04:17:59;;;;;;;11.20;8.38;;;;;;;2.38;76.03;101585.16;5009412;28;20057;-71
2022/03/01 04:20:24;;;;;;;12.10;7.93;;;;;;;2.13;76.18;101594.22;5007723;28;20041;-71
2022/03/01 04:22:50;;;;;;;18.77;9.63;;;;;;;2.42;77.11;101589.69;5008289;28;20385;-71
2022/03/01 04:25:15;;;;;;;11.35;8.88;;;;;;;2.01;76.62;101603.91;5009128;28;20056;-70
2022/03/01 04:27:41;;;;;;;13.05;9.57;;;;;;;1.34;78.85;101601.09;5008946;28;20022;-71
2022/03/01 04:30:08;;;;;;;10.90;8.48;;;;;;;2.11;77.16;101609.66;5009243;28;20493;-71
2022/03/01 04:32:40;;;;;;;12.75;8.88;;;;;;;2.05;75.65;101601.56;5008487;28;20077;-71
2022/03/01 04:35:08;;;;;;;10.23;7.97;;;;;;;2.25;75.68;101610.41;5001691;28;20099;-70
2022/03/01 04:37:36;;;;;;;13.02;9.77;;;;;;;1.96;75.81;101598.47;5008753;28;20402;-71
2022/03/01 04:40:07;;;;;;;10.05;7.50;;;;;;;2.23;75.16;101612.03;5008563;28;20042;-71
2022/03/01 04:42:33;;;;;;;13.70;9.05;;;;;;;1.99;76.61;101608.09;5008912;28;20087;-70
2022/03/01 04:44:59;;;;;;;16.10;8.50;;;;;;;2.17;76.00;101611.69;5023234;28;20128;-71
2022/03/01 04:47:25;;;;;;;11.20;8.57;;;;;;;2.29;75.12;101596.81;5009264;28;20049;-71
2022/03/01 04:49:51;;;;;;;15.57;8.43;;;;;;;2.21;75.73;101613.63;5000435;28;20030;-71
2022/03/01 04:52:17;;;;;;;12.52;8.48;;;;;;;2.07;77.33;101606.84;5011571;28;20393;-71
2022/03/01 04:54:42;;;;;;;10.18;6.05;;;;;;;2.14;76.94;101608.94;5008005;28;20462;-72
2022/03/01 04:57:07;;;;;;;9.63;7.85;;;;;;;2.08;77.10;101616.38;5007760;28;20037;-71
2022/03/01 04:59:34;;;;;;;10.50;7.68;;;;;;;1.88;77.95;101599.78;5008647;28;20058;-70
2022/03/01 05:02:00;;;;;;;12.65;8.85;;;;;;;2.05;77.60;101613.63;5007993;28;20057;-71
2022/03/01 05:04:26;;;;;;;14.52;7.78;;;;;;;2.20;77.62;101610.94;5007594;28;20562;-70
2022/03/01 05:06:53;;;;;;;12.57;8.23;;;;;;;2.02;77.91;101610.88;5008578;28;20057;-71
2022/03/01 05:09:21;;;;;;;13.10;8.93;;;;;;;1.93;78.57;101620.72;5008604;28;20030;-71
2022/03/01 05:11:47;;;;;;;11.73;8.60;;;;;;;2.09;78.79;101608.69;5009043;28;20523;-72
2022/03/01 05:14:13;;;;;;;15.77;9.20;;;;;;;1.80;79.95;101606.22;5008876;28;20046;-71
2022/03/01 05:16:38;;;;;;;12.43;8.90;;;;;;;1.86;79.89;101607.44;5008689;28;20366;-72
2022/03/01 05:19:04;;;;;;;11.32;8.23;;;;;;;1.10;80.65;101595.41;5009012;28;20577;-72
2022/03/01 05:21:29;;;;;;;14.77;9.60;;;;;;;0.91;82.93;101602.09;5007810;28;20446;-72
2022/03/01 05:23:55;;;;;;;11.75;6.57;;;;;;;1.59;81.93;101601.66;5002142;28;20061;-72
2022/03/01 05:26:20;;;;;;;10.38;7.38;;;;;;;1.79;80.78;101607.91;5004791;28;20038;-71
2022/03/01 05:28:46;;;;;;;10.27;8.23;;;;;;;1.70;80.51;101612.59;5006853;28;20497;-74
2022/03/01 05:31:11;;;;;;;13.60;8.95;;;;;;;1.88;79.89;101607.53;5006643;28;20045;-73
2022/03/01 05:33:37;;;;;;;12.18;7.57;;;;;;;1.94;79.53;101619.91;5007329;28;20064;-72
2022/03/01 05:36:02;;;;;;;15.13;6.00;;;;;;;2.03;79.24;101615.22;5008580;28;20053;-71
2022/03/01 05:38:28;;;;;;;10.88;8.57;;;;;;;1.90;79.36;101618.88;5007690;28;20101;-72
2022/03/01 05:40:54;;;;;;;16.65;12.40;;;;;;;1.82;80.00;101614.97;5007346;28;20042;-72
2022/03/01 05:43:19;;;;;;;13.38;8.40;;;;;;;2.00;79.36;101620.25;5007852;28;20037;-73
2022/03/01 05:45:45;;;;;;;11.65;7.50;;;;;;;1.38;79.01;101619.47;5000419;28;20061;-70
2022/03/01 05:48:10;;;;;;;13.48;9.63;;;;;;;1.27;81.74;101617.94;5008691;28;20528;-71
2022/03/01 05:50:36;;;;;;;16.30;9.82;;;;;;;1.56;81.41;101617.00;5006600;28;20053;-71
2022/03/01 05:53:02;;;;;;;12.70;9.98;;;;;;;1.40;81.57;101620.41;5007513;28;20046;-70
2022/03/01 05:55:27;;;;;;;8.80;6.30;;;;;;;1.83;80.73;101628.00;5008013;28;20045;-72
2022/03/01 05:57:53;;;;;;;10.32;8.02;;;;;;;1.17;80.99;101628.56;5038193;28;20037;-70
2022/03/01 06:00:20;;;;;;;10.98;8.55;;;;;;;1.13;82.27;101622.34;5008091;28;20041;-73
2022/03/01 06:02:47;;;;;;;10.25;6.35;;;;;;;1.68;81.79;101633.19;5009512;28;20189;-71
2022/03/01 06:05:14;;;;;;;11.00;8.20;;;;;;;1.90;81.04;101624.03;5011150;28;20037;-70
2022/03/01 06:07:40;;;;;;;12.55;7.32;;;;;;;1.99;80.95;101618.47;5026143;28;20432;-73
2022/03/01 06:10:06;;;;;;;11.98;8.55;;;;;;;1.78;80.38;101631.09;5010883;28;20054;-72
2022/03/01 06:12:32;;;;;;;11.65;8.85;;;;;;;1.89;81.21;101642.94;5012120;28;20037;-71
2022/03/01 06:14:58;;;;;;;11.02;7.55;;;;;;;1.97;80.47;101633.94;5011169;28;20053;-72
2022/03/01 06:17:23;;;;;;;8.98;5.68;;;;;;;2.16;79.88;101629.75;5008533;28;20042;-71
2022/03/01 06:19:48;;;;;;;10.32;7.05;;;;;;;1.88;79.22;101626.53;5004284;28;20049;-71
2022/03/01 06:22:14;;;;;;;14.13;9.68;;;;;;;1.59;82.02;101635.28;5011341;28;20064;-72
2022/03/01 06:24:42;;;;;;;14.13;10.85;;;;;;;2.16;80.60;101629.75;5012440;28;20105;-70
2022/03/01 06:27:08;;;;;;;15.70;10.23;;;;;;;1.40;80.80;101635.94;5011709;28;20091;-71
2022/03/01 06:29:35;;;;;;;14.82;10.35;;;;;;;1.95;81.33;101630.34;5009232;28;20128;-70
2022/03/01 06:32:02;;;;;;;14.15;9.95;;;;;;;1.95;79.81;101629.47;5011383;28;20045;-70
2022/03/01 06:34:27;;;;;;;17.80;10.07;;;;;;;1.63;80.67;101639.81;5011436;28;20041;-71
2022/03/01 06:36:53;;;;;;;11.45;6.50;;;;;;;2.03;80.24;101641.13;5005158;28;20045;-71
2022/03/01 06:39:18;;;;;;;13.57;9.27;;;;;;;1.58;80.93;101643.84;5007534;28;20403;-72
2022/03/01 06:41:44;;;;;;;12.90;8.20;;;;;;;1.15;82.03;101638.81;5009868;28;20041;-72
2022/03/01 06:44:09;;;;;;;10.52;8.45;;;;;;;1.79;82.11;101643.25;5010593;28;20046;-71
2022/03/01 06:46:35;;;;;;;18.75;9.40;;;;;;;2.13;80.23;101637.31;5010473;28;20046;-71
2022/03/01 06:49:01;;;;;;;13.27;9.50;;;;;;;1.07;81.76;101636.59;5009572;28;20042;-71
2022/03/01 06:51:27;;;;;;;14.05;8.95;;;;;;;1.23;83.26;101644.44;5011106;28;20544;-71
2022/03/01 06:53:53;;;;;;;13.80;7.13;;;;;;;1.94;81.62;101636.31;5008998;28;20065;-71
2022/03/01 06:56:18;;;;;;;14.05;9.13;;;;;;;1.95;80.25;101639.81;5008494;28;20077;-71
2022/03/01 06:58:44;;;;;;;9.57;6.32;;;;;;;2.00;79.67;101631.50;5008410;28;20383;-71
2022/03/01 07:01:09;;;;;;;14.80;9.60;;;;;;;2.16;79.51;101633.22;5009323;28;20049;-70
2022/03/01 07:03:35;;;;;;;14.63;9.50;;;;;;;1.96;80.26;101629.53;5008569;28;20026;-71
2022/03/01 07:06:01;;;;;;;14.13;9.73;;;;;;;1.99;80.02;101633.97;5010973;28;20033;-72
2022/03/01 07:08:26;;;;;;;13.55;10.30;;;;;;;0.95;82.76;101645.41;4997937;28;20073;-72
2022/03/01 07:10:52;;;;;;;11.38;7.60;;;;;;;1.12;83.54;101630.88;5006819;28;20125;-71
2022/03/01 07:13:18;;;;;;;13.30;9.93;;;;;;;1.71;82.65;101636.75;5011031;28;20056;-72
2022/03/01 07:15:44;;;;;;;9.73;8.73;;;;;;;2.06;81.24;101638.69;5009789;28;20053;-73
2022/03/01 07:18:09;;;;;;;12.07;9.35;;;;;;;2.03;80.40;101634.22;5041409;28;20072;-72
2022/03/01 07:20:48;;;;;;;16.13;9.98;;;;;;;1.99;80.56;101639.16;5012660;28;20042;-72
2022/03/01 07:23:14;;;;;;;11.68;9.02;;;;;;;1.97;80.65;101643.41;5010229;28;20041;-72
2022/03/01 07:25:39;;;;;;;11.00;9.48;;;;;;;2.21;80.12;101634.34;5006575;28;20045;-73
2022/03/01 07:28:05;;;;;;;11.95;9.27;;;;;;;2.15;80.14;101638.31;5008737;28;20041;-73
2022/03/01 07:30:31;;;;;;;10.40;6.88;;;;;;;2.11;79.61;101645.91;5008215;28;20041;-72
2022/03/01 07:32:58;;;;;;;16.00;9.38;;;;;;;2.26;79.04;101642.38;5009729;28;20029;-73
2022/03/01 07:35:25;;;;;;;16.58;8.95;;;;;;;2.39;77.69;101652.56;5010689;28;20496;-73
2022/03/01 07:37:51;;;;;;;17.63;10.63;;;;;;;2.17;78.19;101644.47;5007120;28;20379;-73
2022/03/01 07:40:18;;;;;;;13.23;8.88;;;;;;;2.27;78.81;101650.22;5010119;28;20038;-72
2022/03/01 07:42:44;;;;;;;14.48;9.60;;;;;;;2.61;77.37;101653.69;5008601;28;20053;-73
2022/03/01 07:45:11;;;;;;;17.83;11.10;;;;;;;2.65;77.83;101648.75;5007953;28;20426;-75
2022/03/01 07:47:37;;;;;;;14.63;11.32;;;;;;;2.40;77.99;101648.28;5009912;28;20038;-73
2022/03/01 07:50:03;;;;;;;12.10;8.02;;;;;;;2.48;78.47;101650.47;5009655;28;20192;-73
2022/03/01 07:52:29;;;;;;;15.32;10.88;;;;;;;2.69;78.48;101634.25;5007703;28;20129;-74
2022/03/01 07:54:54;;;;;;;13.40;10.60;;;;;;;2.75;78.06;101647.53;5009588;28;20540;-74
2022/03/01 07:57:20;;;;;;;16.10;10.88;;;;;;;2.74;78.00;101651.81;5010492;28;20480;-74
2022/03/01 07:59:45;;;;;;;14.35;10.88;;;;;;;2.87;77.60;101636.91;5010314;28;20050;-71
2022/03/01 08:02:11;;;;;;;16.48;12.32;;;;;;;2.40;78.72;101659.53;5008968;28;20042;-73
2022/03/01 08:04:37;;;;;;;17.13;12.10;;;;;;;2.78;78.70;101659.75;5013480;28;20033;-72
2022/03/01 08:07:03;;;;;;;16.88;12.23;;;;;;;2.99;77.77;101652.19;5008969;28;20092;-73
2022/03/01 08:09:29;;;;;;;16.27;11.95;;;;;;;2.99;77.44;101641.81;5008122;28;20475;-72
2022/03/01 08:11:54;;;;;;;19.15;13.02;;;;;;;2.84;77.47;101653.19;5008401;28;20025;-71
2022/03/01 08:14:19;;;;;;;19.25;12.98;;;;;;;2.96;76.99;101645.13;5007634;28;20042;-73
2022/03/01 08:16:45;;;;;;;14.63;12.32;;;;;;;3.06;77.14;101651.69;5004569;28;20522;-73
2022/03/01 08:19:10;;;;;;;15.48;12.00;;;;;;;3.14;77.46;101645.19;5008192;28;20470;-73
2022/03/01 08:21:36;;;;;;;17.40;9.77;;;;;;;3.25;75.95;101656.06;5007796;28;20033;-74
2022/03/01 08:24:02;;;;;;;14.32;10.15;;;;;;;3.25;75.08;101659.56;5008405;28;20093;-73
2022/03/01 08:26:28;;;;;;;11.02;8.55;;;;;;;3.12;73.57;101650.28;4990853;28;20134;-72
2022/03/01 08:28:53;;;;;;;10.50;7.82;;;;;;;3.09;71.86;101660.50;5007582;28;20129;-73
2022/03/01 08:31:18;;;;;;;10.05;8.35;;;;;;;2.91;73.92;101641.44;5007510;28;20057;-73
2022/03/01 08:33:44;;;;;;;10.00;7.82;;;;;;;3.11;73.20;101652.78;5022774;28;20033;-73
2022/03/01 08:36:15;;;;;;;12.10;9.65;;;;;;;3.27;74.32;101659.63;5017676;28;20033;-73
2022/03/01 08:38:41;;;;;;;13.82;9.73;;;;;;;3.20;74.23;101666.22;4996138;28;20057;-72
2022/03/01 08:41:07;;;;;;;13.25;10.05;;;;;;;3.16;74.09;101656.50;5007393;28;20580;-72
2022/03/01 08:43:32;;;;;;;17.00;10.23;;;;;;;3.28;74.29;101677.00;5007953;28;20041;-72
2022/03/01 08:45:58;;;;;;;9.85;8.25;;;;;;;2.99;73.62;101681.59;5008128;28;20042;-72
2022/03/01 08:48:25;;;;;;;11.38;7.72;;;;;;;3.09;73.71;101683.84;5002080;28;20038;-71
2022/03/01 08:50:51;;;;;;;10.90;8.48;;;;;;;3.03;73.74;101682.66;5007508;28;20038;-72
2022/03/01 08:53:19;;;;;;;11.52;8.98;;;;;;;3.36;73.83;101684.34;4992664;28;20042;-71
2022/03/01 08:55:45;;;;;;;14.43;9.40;;;;;;;3.35;73.88;101690.34;5006975;28;20049;-72
2022/03/01 08:58:11;;;;;;;14.60;8.55;;;;;;;3.10;73.38;101693.41;5006033;28;20038;-73
2022/03/01 09:00:37;;;;;;;12.52;8.80;;;;;;;3.19;73.76;101681.72;5008552;28;20025;-74
2022/03/01 09:03:03;;;;;;;13.95;8.18;;;;;;;3.55;73.81;101682.66;5007927;28;20091;-74
2022/03/01 09:05:49;;;;;;;12.30;8.20;;;;;;;3.40;74.12;101687.09;5008191;28;20045;-73
2022/03/01 09:08:15;;;;;;;11.63;7.63;;;;;;;3.52;72.66;101695.47;5007126;28;20097;-72
2022/03/01 09:10:41;;;;;;;8.95;6.13;;;;;;;2.83;71.72;101694.56;5008342;28;20046;-73
2022/03/01 09:13:07;;;;;;;9.93;7.75;;;;;;;2.28;75.43;101692.53;5007552;28;20401;-74
2022/03/01 09:15:38;;;;;;;9.57;7.93;;;;;;;2.61;73.73;101695.16;5011147;28;20022;-73
2022/03/01 09:18:05;;;;;;;10.30;8.00;;;;;;;2.87;74.41;101697.41;5007577;28;20052;-73
2022/03/01 09:20:32;;;;;;;16.75;6.88;;;;;;;1.70;73.96;101705.72;4996866;28;20046;-72
2022/03/01 09:22:58;;;;;;;10.18;6.47;;;;;;;1.58;73.69;101703.34;5008930;28;20046;-73
2022/03/01 09:25:24;;;;;;;10.93;6.10;;;;;;;1.38;73.37;101712.56;5006440;28;20363;-72
2022/03/01 09:27:50;;;;;;;10.93;6.35;;;;;;;1.72;74.63;101704.13;5006440;28;20049;-74
2022/03/01 09:30:16;;;;;;;8.25;5.75;;;;;;;1.74;75.40;101706.81;5004665;28;20027;-74
2022/03/01 09:32:43;;;;;;;11.90;7.22;;;;;;;1.99;75.86;101703.88;5005772;28;20034;-73
2022/03/01 09:35:09;;;;;;;8.60;6.20;;;;;;;1.75;74.17;101701.69;5023901;28;20387;-74
2022/03/01 09:37:35;;;;;;;8.23;5.07;;;;;;;1.88;72.61;101708.47;5012336;28;20048;-74
2022/03/01 09:40:04;;;;;;;18.15;7.35;;;;;;;2.37;72.73;101689.56;5011562;28;20038;-72
2022/03/01 09:42:31;;;;;;;8.18;4.72;;;;;;;2.56;73.58;101700.09;5003462;28;20038;-73
2022/03/01 09:44:57;;;;;;;12.23;7.05;;;;;;;2.64;74.23;101685.81;5012401;28;20117;-71
2022/03/01 09:47:30;;;;;;;11.45;6.25;;;;;;;2.66;74.41;101688.50;5012934;28;20129;-73
2022/03/01 09:49:55;;;;;;;9.53;5.43;;;;;;;2.74;72.38;101697.59;5012493;28;20153;-73
2022/03/01 09:52:21;;;;;;;8.55;4.93;;;;;;;3.00;73.29;101680.78;5010648;28;20113;-72
2022/03/01 09:54:49;;;;;;;15.43;7.07;;;;;;;3.31;72.78;101691.00;5012888;28;20037;-73
2022/03/01 09:57:17;;;;;;;11.00;6.85;;;;;;;3.27;72.22;101683.88;4992195;28;20048;-72
2022/03/01 09:59:43;;;;;;;12.60;8.45;;;;;;;2.75;74.81;101676.03;5012789;28;20498;-73
2022/03/01 10:02:09;;;;;;;9.63;6.05;;;;;;;2.62;72.69;101674.53;5011050;28;20053;-73
2022/03/01 10:04:49;;;;;;;11.70;6.18;;;;;;;2.40;74.30;101679.34;5002757;28;20054;-75
2022/03/01 10:07:21;;;;;;;7.80;6.28;;;;;;;2.43;73.89;101669.16;5011544;28;20490;-73
2022/03/01 10:09:48;;;;;;;12.95;6.85;;;;;;;1.99;72.95;101680.56;5010826;28;20042;-73
2022/03/01 10:12:14;;;;;;;10.00;6.15;;;;;;;2.38;71.82;101671.50;5011889;28;20042;-72
2022/03/01 10:14:40;;;;;;;10.10;6.95;;;;;;;2.44;72.82;101670.94;5010352;28;20049;-73
2022/03/01 10:17:16;;;;;;;14.80;7.45;;;;;;;2.44;73.30;101677.03;5011479;28;20413;-73
2022/03/01 10:19:41;;;;;;;10.88;7.65;;;;;;;2.26;73.74;101668.25;5011110;28;20049;-73
2022/03/01 10:22:06;;;;;;;10.35;6.95;;;;;;;1.97;74.04;101662.41;5004386;28;20490;-73
2022/03/01 10:24:32;;;;;;;11.35;8.40;;;;;;;2.47;72.87;101658.16;4992228;28;20033;-73
2022/03/01 10:27:01;;;;;;;11.05;6.82;;;;;;;2.55;73.57;101664.63;4991228;28;20413;-71
2022/03/01 10:29:28;;;;;;;14.48;8.57;;;;;;;2.59;74.44;101660.50;4990970;28;20137;-75
2022/03/01 10:32:09;;;;;;;11.73;8.65;;;;;;;1.87;76.48;101652.31;4991752;28;20042;-76
2022/03/01 10:34:34;;;;;;;13.05;8.13;;;;;;;1.95;75.47;101650.19;4983908;28;20050;-79
2022/03/01 10:37:00;;;;;;;12.52;7.93;;;;;;;1.77;76.76;101644.88;4990832;28;20121;-79
2022/03/01 10:39:29;;;;;;;10.20;8.75;;;;;;;2.29;77.59;101647.69;4990976;28;20534;-78
2022/03/01 10:41:55;;;;;;;12.50;8.30;;;;;;;1.74;81.60;101643.00;4990741;28;20037;-79
2022/03/01 10:44:23;;;;;;;15.48;9.68;;;;;;;2.69;79.80;101652.38;4991141;28;20046;-79
2022/03/01 10:46:50;;;;;;;18.55;10.02;;;;;;;2.83;78.58;101650.50;4991823;28;20050;-80
2022/03/01 10:49:20;;;;;;;17.23;9.48;;;;;;;3.01;79.44;101642.78;4992056;28;20054;-75
2022/03/01 10:52:07;;;;;;;16.25;10.18;;;;;;;2.97;79.48;101636.53;4992225;28;20046;-73
2022/03/01 10:54:44;;;;;;;15.23;10.10;;;;;;;2.70;80.54;101633.44;4992038;28;20037;-73
2022/03/01 10:57:21;;;;;;;16.88;11.45;;;;;;;2.73;80.72;101642.25;4992283;28;20045;-74
2022/03/01 10:59:48;;;;;;;15.45;12.38;;;;;;;2.07;80.88;101643.06;4990096;28;20122;-72
2022/03/01 11:02:16;;;;;;;19.02;12.10;;;;;;;2.26;82.43;101626.81;4990936;28;20572;-74
2022/03/01 11:04:42;;;;;;;14.00;10.98;;;;;;;2.61;81.20;101631.25;4991577;28;20074;-73
2022/03/01 11:07:10;;;;;;;12.32;9.60;;;;;;;1.25;84.10;101629.91;4989991;28;20185;-74
2022/03/01 11:09:36;;;;;;;11.50;8.45;;;;;;;1.54;85.65;101612.53;4989929;28;20478;-72
2022/03/01 11:12:05;;;;;;;15.98;11.55;;;;;;;1.46;85.97;101612.13;4988392;28;20065;-73
2022/03/01 11:14:53;;;;;;;14.73;9.75;;;;;;;1.36;85.90;101628.81;4988923;28;20045;-74
2022/03/01 11:17:24;;;;;;;14.52;9.63;;;;;;;1.25;86.28;101629.91;4988498;28;20491;-73
2022/03/01 11:19:59;;;;;;;13.93;11.32;;;;;;;1.12;85.83;101611.91;4986606;28;20186;-74
2022/03/01 11:22:29;;;;;;;14.18;10.48;;;;;;;1.14;85.96;101611.19;4989919;28;20056;-74